Time;durP1;ratioP1;P1;durP2;ratioP2;P2;SDS_P1;SDS_P2;PMS_P1;PMS_P2;Temp;Humidity;BMP_temperature;BMP_pressure;BME280_temperature;BME280_humidity;BME280_pressure;Samples;Min_cycle;Max_cycle;Signal;HPM_P1;HPM_P2
2023/08/20 00:01:15;;;;;;;20.13;18.63;;;24.50;68.20;;;;;;6246988;28;20234;-82
2023/08/20 00:04:19;;;;;;;20.23;18.77;;;24.60;68.20;;;;;;6232953;28;20232;-83
2023/08/20 00:07:23;;;;;;;21.37;19.57;;;24.60;68.30;;;;;;6222499;28;20242;-81
2023/08/20 00:10:26;;;;;;;20.47;18.87;;;24.50;68.60;;;;;;6227663;28;20242;-84
2023/08/20 00:13:30;;;;;;;20.13;18.63;;;24.50;68.50;;;;;;6242480;28;20234;-85
2023/08/20 00:16:34;;;;;;;21.77;19.93;;;24.50;68.40;;;;;;6236305;28;20234;-81
2023/08/20 00:19:38;;;;;;;19.87;18.37;;;24.40;68.60;;;;;;6244436;28;20230;-83
2023/08/20 00:22:44;;;;;;;21.93;20.03;;;24.40;68.40;;;;;;6237848;28;20773;-82
2023/08/20 00:25:48;;;;;;;19.13;17.67;;;24.40;68.30;;;;;;6249951;28;20243;-81
2023/08/20 00:28:52;;;;;;;20.57;18.87;;;24.40;68.20;;;;;;6243926;28;20230;-80
2023/08/20 00:31:56;;;;;;;19.83;18.33;;;24.40;68.10;;;;;;6257869;28;20273;-79
2023/08/20 00:34:59;;;;;;;19.37;17.90;;;24.40;68.10;;;;;;6262188;28;20234;-75
2023/08/20 00:38:02;;;;;;;19.40;18.10;;;24.40;68.00;;;;;;6258917;28;20235;-80
2023/08/20 00:41:05;;;;;;;18.33;16.83;;;24.40;68.00;;;;;;6255727;28;20246;-79
2023/08/20 00:44:09;;;;;;;17.73;16.43;;;24.40;68.00;;;;;;6252228;28;20239;-84
2023/08/20 00:47:14;;;;;;;17.37;16.23;;;24.40;67.90;;;;;;6252739;28;20243;-81
2023/08/20 00:50:18;;;;;;;16.20;15.20;;;24.40;67.80;;;;;;6248915;28;20239;-78
2023/08/20 00:53:21;;;;;;;16.30;15.20;;;24.40;67.70;;;;;;6248757;28;20235;-80
2023/08/20 00:56:24;;;;;;;17.57;16.40;;;24.40;67.70;;;;;;6253147;28;20243;-79
2023/08/20 00:59:30;;;;;;;17.30;16.00;;;24.40;67.60;;;;;;6236594;28;20235;-78
2023/08/20 01:02:34;;;;;;;15.13;14.20;;;24.40;67.60;;;;;;6241826;28;20455;-79
2023/08/20 01:05:50;;;;;;;19.00;17.50;;;24.40;67.60;;;;;;6253038;28;20231;-78
2023/08/20 01:08:59;;;;;;;18.23;16.93;;;24.40;67.70;;;;;;6243364;28;20231;-80
2023/08/20 01:12:04;;;;;;;17.00;15.63;;;24.40;67.70;;;;;;6253566;28;20367;-84
2023/08/20 01:15:13;;;;;;;17.70;16.30;;;24.40;68.20;;;;;;6255503;28;20254;-81
2023/08/20 01:18:18;;;;;;;17.87;16.67;;;24.40;68.20;;;;;;6251647;28;20231;-83
2023/08/20 01:21:30;;;;;;;17.87;16.67;;;24.40;68.90;;;;;;6240416;28;20242;-83
2023/08/20 01:24:48;;;;;;;16.93;15.63;;;24.40;69.10;;;;;;6242693;28;20517;-81
2023/08/20 01:27:59;;;;;;;19.33;17.67;;;24.50;69.70;;;;;;6247742;28;20325;-84
2023/08/20 01:31:04;;;;;;;17.13;15.70;;;24.50;70.20;;;;;;6244176;28;20338;-83
2023/08/20 01:34:07;;;;;;;16.90;15.70;;;24.40;70.40;;;;;;6238153;28;20858;-81
2023/08/20 01:37:10;;;;;;;17.03;15.63;;;24.50;70.70;;;;;;6247630;28;20372;-82
2023/08/20 01:40:14;;;;;;;17.73;15.67;;;24.50;70.70;;;;;;6238789;28;20246;-83
2023/08/20 01:43:17;;;;;;;17.83;16.40;;;24.50;70.90;;;;;;6253541;28;20761;-80
2023/08/20 01:46:21;;;;;;;17.33;15.70;;;24.40;71.00;;;;;;6245751;28;20238;-83
2023/08/20 01:49:25;;;;;;;17.13;15.67;;;24.40;71.20;;;;;;6250557;28;20318;-82
2023/08/20 01:52:29;;;;;;;17.50;16.10;;;24.40;71.50;;;;;;6240399;28;20238;-84
2023/08/20 01:55:32;;;;;;;16.90;15.33;;;24.30;71.70;;;;;;6247059;28;20296;-83
2023/08/20 01:58:36;;;;;;;17.50;15.90;;;24.30;71.80;;;;;;6251446;28;20238;-76
2023/08/20 02:01:40;;;;;;;18.20;16.47;;;24.20;72.00;;;;;;6257063;28;20259;-84
2023/08/20 02:04:43;;;;;;;17.20;15.80;;;24.20;72.20;;;;;;6247123;28;20249;-85
2023/08/20 02:07:46;;;;;;;17.50;16.20;;;24.20;72.10;;;;;;6225100;28;20304;-82
2023/08/20 02:10:49;;;;;;;16.87;15.20;;;24.20;72.30;;;;;;6228632;28;20234;-81
2023/08/20 02:13:52;;;;;;;15.27;14.00;;;24.10;72.50;;;;;;6249774;28;20263;-81
2023/08/20 02:16:57;;;;;;;17.17;15.57;;;24.00;72.80;;;;;;6229925;28;20266;-82
2023/08/20 02:20:00;;;;;;;17.00;15.40;;;24.00;72.80;;;;;;6249433;28;20322;-84
2023/08/20 02:23:03;;;;;;;17.90;16.07;;;24.00;72.90;;;;;;6263705;28;20238;-78
2023/08/20 02:26:06;;;;;;;18.17;16.57;;;24.00;72.90;;;;;;6255715;28;20744;-84
2023/08/20 02:29:09;;;;;;;17.63;15.90;;;23.90;73.20;;;;;;6233398;28;20238;-81
2023/08/20 02:32:14;;;;;;;18.57;16.73;;;23.90;73.30;;;;;;6242362;28;20246;-85
2023/08/20 02:35:17;;;;;;;17.77;16.10;;;23.90;73.50;;;;;;6254767;28;20239;-81
2023/08/20 02:38:20;;;;;;;15.47;14.20;;;23.90;73.60;;;;;;6259453;28;20234;-79
2023/08/20 02:41:23;;;;;;;16.87;15.50;;;23.80;73.70;;;;;;6266601;28;20226;-78
2023/08/20 02:44:26;;;;;;;16.73;15.33;;;23.80;73.90;;;;;;6262971;28;20265;-80
2023/08/20 02:47:33;;;;;;;18.20;16.70;;;23.70;73.90;;;;;;6258612;28;20273;-80
2023/08/20 02:50:37;;;;;;;16.97;15.33;;;23.70;73.90;;;;;;6243406;28;20289;-83
2023/08/20 02:53:40;;;;;;;16.87;15.23;;;23.60;74.30;;;;;;6238888;28;20719;-84
2023/08/20 02:56:43;;;;;;;17.63;16.13;;;23.60;74.40;;;;;;6234916;28;20238;-84
2023/08/20 02:59:46;;;;;;;17.07;15.67;;;23.60;74.70;;;;;;6234408;28;20281;-82
2023/08/20 03:02:50;;;;;;;16.73;15.40;;;23.50;74.70;;;;;;6231189;28;20744;-81
2023/08/20 03:05:54;;;;;;;16.00;14.40;;;23.50;74.90;;;;;;6241223;28;20243;-85
2023/08/20 03:08:57;;;;;;;16.77;15.17;;;23.40;75.00;;;;;;6242756;28;20389;-82
2023/08/20 03:12:02;;;;;;;17.03;15.40;;;23.40;75.00;;;;;;6239285;28;20243;-83
2023/08/20 03:15:07;;;;;;;17.57;15.73;;;23.30;75.20;;;;;;6225678;28;20709;-85
2023/08/20 03:18:11;;;;;;;16.30;14.93;;;23.30;75.40;;;;;;6238073;28;20238;-84
2023/08/20 03:21:14;;;;;;;16.73;15.33;;;23.20;75.40;;;;;;6231604;28;20943;-83
2023/08/20 03:24:17;;;;;;;16.77;15.27;;;23.20;75.50;;;;;;6217119;28;20235;-83
2023/08/20 03:27:21;;;;;;;16.70;15.30;;;23.20;75.50;;;;;;6217096;28;20318;-85
2023/08/20 03:30:24;;;;;;;16.67;15.20;;;23.20;75.70;;;;;;6218779;28;20739;-86
2023/08/20 03:33:28;;;;;;;16.13;14.63;;;23.10;75.80;;;;;;6196817;28;20234;-84
2023/08/20 03:36:32;;;;;;;15.67;14.30;;;23.10;76.00;;;;;;6220121;28;20232;-83
2023/08/20 03:39:35;;;;;;;16.67;15.17;;;23.00;76.00;;;;;;6200373;28;20673;-82
2023/08/20 03:42:38;;;;;;;16.63;15.07;;;23.00;76.20;;;;;;6213118;28;20329;-83
2023/08/20 03:45:41;;;;;;;16.67;15.10;;;22.90;76.30;;;;;;6221837;28;20771;-83
2023/08/20 03:48:45;;;;;;;16.93;15.47;;;22.90;76.40;;;;;;6223778;28;20239;-84
2023/08/20 03:51:49;;;;;;;16.57;15.17;;;22.80;76.50;;;;;;6211889;28;20304;-82
2023/08/20 03:54:52;;;;;;;16.77;15.50;;;22.80;76.50;;;;;;6212478;28;20267;-82
2023/08/20 03:57:55;;;;;;;15.63;14.43;;;22.80;76.70;;;;;;6220509;28;20235;-82
2023/08/20 04:00:58;;;;;;;16.83;15.23;;;22.80;76.80;;;;;;6215831;28;20933;-83
2023/08/20 04:04:03;;;;;;;16.10;14.80;;;22.70;76.90;;;;;;6218695;28;20239;-82
2023/08/20 04:07:06;;;;;;;17.40;15.77;;;22.70;77.00;;;;;;6215122;28;20269;-82
2023/08/20 04:10:10;;;;;;;15.57;14.23;;;22.60;77.20;;;;;;6216238;28;20250;-82
2023/08/20 04:13:13;;;;;;;16.87;15.10;;;22.70;77.20;;;;;;6220355;28;20258;-83
2023/08/20 04:16:17;;;;;;;15.47;14.10;;;22.60;77.20;;;;;;6219212;28;20733;-83
2023/08/20 04:19:21;;;;;;;16.97;15.33;;;22.60;77.30;;;;;;6226690;28;20242;-82
2023/08/20 04:22:25;;;;;;;16.90;15.53;;;22.60;77.50;;;;;;6235184;28;20308;-82
2023/08/20 04:25:28;;;;;;;16.80;15.00;;;22.60;77.40;;;;;;6234442;28;20344;-83
2023/08/20 04:28:31;;;;;;;16.90;15.27;;;22.50;77.60;;;;;;6233554;28;20862;-82
2023/08/20 04:31:34;;;;;;;18.13;16.47;;;22.50;77.60;;;;;;6235428;28;20261;-84
2023/08/20 04:34:39;;;;;;;18.03;16.63;;;22.50;77.80;;;;;;6229575;28;20233;-82
2023/08/20 04:37:42;;;;;;;19.50;16.87;;;22.50;77.90;;;;;;6234254;28;20728;-84
2023/08/20 04:40:47;;;;;;;17.30;15.77;;;22.50;77.90;;;;;;6235983;28;20245;-82
2023/08/20 04:43:50;;;;;;;17.33;15.63;;;22.50;77.80;;;;;;6235235;28;20326;-84
2023/08/20 04:46:53;;;;;;;17.13;15.63;;;22.60;77.70;;;;;;6233574;28;20242;-84
2023/08/20 04:49:58;;;;;;;17.60;16.00;;;22.60;77.60;;;;;;6226542;28;20358;-83
2023/08/20 04:53:01;;;;;;;17.33;15.93;;;22.60;77.70;;;;;;6235536;28;20258;-84
2023/08/20 04:56:04;;;;;;;17.30;15.90;;;22.60;77.70;;;;;;6231346;28;20327;-83
2023/08/20 04:59:07;;;;;;;17.93;16.23;;;22.60;77.90;;;;;;6240032;28;20377;-83
2023/08/20 05:02:10;;;;;;;17.13;15.63;;;22.50;77.90;;;;;;6241101;28;20368;-83
2023/08/20 05:05:15;;;;;;;19.23;17.20;;;22.50;78.00;;;;;;6231731;28;20280;-83
2023/08/20 05:08:18;;;;;;;18.70;16.97;;;22.60;78.00;;;;;;6239306;28;20238;-82
2023/08/20 05:11:21;;;;;;;18.03;16.40;;;22.60;78.00;;;;;;6235660;28;20308;-81
2023/08/20 05:14:24;;;;;;;16.90;15.30;;;22.60;78.10;;;;;;6239239;28;20632;-84
2023/08/20 05:17:27;;;;;;;17.67;16.27;;;22.60;78.00;;;;;;6236438;28;20242;-81
2023/08/20 05:20:32;;;;;;;16.30;14.83;;;22.60;78.00;;;;;;6237825;28;20843;-80
2023/08/20 05:23:35;;;;;;;18.57;17.03;;;22.70;78.00;;;;;;6238884;28;20235;-80
2023/08/20 05:26:38;;;;;;;21.30;19.10;;;22.80;77.80;;;;;;6235386;28;20720;-83
2023/08/20 05:29:41;;;;;;;19.07;17.17;;;22.90;77.40;;;;;;6235373;28;20931;-83
2023/08/20 05:32:45;;;;;;;19.20;17.57;;;22.90;77.30;;;;;;6211087;28;20235;-85
2023/08/20 05:35:50;;;;;;;19.17;17.27;;;23.00;77.20;;;;;;6235983;28;20807;-84
2023/08/20 05:38:53;;;;;;;18.33;16.60;;;23.10;77.20;;;;;;6230774;28;20330;-82
2023/08/20 05:41:56;;;;;;;19.23;17.33;;;23.20;76.70;;;;;;6237760;28;20373;-83
2023/08/20 05:44:59;;;;;;;18.77;16.87;;;23.30;76.30;;;;;;6237717;28;20242;-83
2023/08/20 05:48:04;;;;;;;17.70;16.23;;;23.40;75.90;;;;;;6239501;28;20235;-82
2023/08/20 05:51:09;;;;;;;19.03;17.33;;;23.40;75.90;;;;;;6238719;28;20230;-81
2023/08/20 05:54:12;;;;;;;18.70;17.00;;;23.50;75.50;;;;;;6238428;28;20238;-82
2023/08/20 05:57:15;;;;;;;18.47;16.73;;;23.60;75.50;;;;;;6239407;28;20254;-84
2023/08/20 06:00:18;;;;;;;17.90;16.23;;;23.60;75.00;;;;;;6238138;28;20238;-80
2023/08/20 06:03:21;;;;;;;19.90;18.13;;;23.80;75.10;;;;;;6236961;28;20238;-81
2023/08/20 06:06:27;;;;;;;19.60;17.90;;;23.90;74.70;;;;;;6229277;28;20388;-82
2023/08/20 06:09:30;;;;;;;17.33;15.83;;;24.00;74.20;;;;;;6238885;28;20802;-83
2023/08/20 06:12:33;;;;;;;17.60;16.20;;;24.20;73.60;;;;;;6235583;28;22556;-83
2023/08/20 06:15:37;;;;;;;19.67;18.07;;;24.40;73.20;;;;;;6238681;28;20261;-81
2023/08/20 06:18:40;;;;;;;19.80;17.70;;;24.40;72.70;;;;;;6238909;28;20235;-84
2023/08/20 06:21:46;;;;;;;18.17;16.20;;;24.50;72.30;;;;;;6240055;28;20384;-80
2023/08/20 06:24:49;;;;;;;17.97;16.43;;;24.40;72.60;;;;;;6232928;28;20289;-82
2023/08/20 06:27:53;;;;;;;18.77;17.20;;;24.20;73.00;;;;;;6205696;28;20243;-83
2023/08/20 06:30:56;;;;;;;19.07;17.57;;;24.10;73.20;;;;;;6213337;28;20250;-82
2023/08/20 06:33:59;;;;;;;18.00;16.50;;;24.10;73.00;;;;;;6227021;28;20254;-79
2023/08/20 06:37:03;;;;;;;19.03;17.33;;;24.00;73.10;;;;;;6232296;28;20230;-81
2023/08/20 06:40:08;;;;;;;20.70;18.90;;;24.00;73.60;;;;;;6239470;28;20385;-81
2023/08/20 06:43:11;;;;;;;19.13;17.57;;;23.90;73.80;;;;;;6230965;28;20238;-83
2023/08/20 06:46:17;;;;;;;19.10;17.57;;;24.00;73.30;;;;;;6232772;28;20718;-82
2023/08/20 06:49:20;;;;;;;18.70;16.90;;;24.20;73.20;;;;;;6237042;28;20784;-81
2023/08/20 06:52:24;;;;;;;18.57;17.03;;;24.20;73.00;;;;;;6229563;28;20254;-82
2023/08/20 06:55:28;;;;;;;20.03;18.20;;;24.20;73.00;;;;;;6238589;28;20235;-84
2023/08/20 06:58:31;;;;;;;17.90;16.27;;;24.20;72.60;;;;;;6225737;28;20345;-85
2023/08/20 07:01:34;;;;;;;18.70;16.93;;;24.20;72.60;;;;;;6238242;28;20253;-81
2023/08/20 07:04:37;;;;;;;19.17;17.47;;;24.20;72.60;;;;;;6237528;28;20230;-87
2023/08/20 07:07:41;;;;;;;18.80;17.23;;;24.20;72.70;;;;;;6237238;28;20246;-83
2023/08/20 07:10:45;;;;;;;19.70;17.97;;;24.10;72.90;;;;;;6236920;28;20242;-80
2023/08/20 07:13:48;;;;;;;19.50;17.67;;;24.00;73.00;;;;;;6231772;28;20416;-84
2023/08/20 07:16:51;;;;;;;19.90;18.10;;;24.00;73.00;;;;;;6214065;28;20275;-83
2023/08/20 07:19:54;;;;;;;18.87;17.13;;;24.00;72.90;;;;;;6226741;28;20239;-80
2023/08/20 07:22:58;;;;;;;19.70;18.00;;;23.90;73.30;;;;;;6222699;28;20284;-82
2023/08/20 07:26:09;;;;;;;19.50;17.70;;;23.70;73.50;;;;;;6237141;28;20665;-84
2023/08/20 07:29:12;;;;;;;18.57;16.77;;;23.70;73.70;;;;;;6236378;28;20249;-83
2023/08/20 07:32:15;;;;;;;17.83;16.20;;;23.90;73.60;;;;;;6236116;28;20242;-81
2023/08/20 07:35:18;;;;;;;17.47;16.00;;;24.10;72.90;;;;;;6234822;28;20227;-82
2023/08/20 07:38:22;;;;;;;16.43;14.87;;;24.20;72.60;;;;;;6236290;28;20226;-81
2023/08/20 07:41:25;;;;;;;14.77;13.50;;;24.40;72.30;;;;;;6234488;28;20245;-78
2023/08/20 07:44:29;;;;;;;16.17;14.63;;;24.70;72.10;;;;;;6231817;28;20337;-81
2023/08/20 07:47:32;;;;;;;20.20;15.97;;;25.00;70.80;;;;;;6238212;28;20611;-83
2023/08/20 07:50:35;;;;;;;16.77;15.40;;;25.30;69.70;;;;;;6235884;28;20378;-80
2023/08/20 07:53:40;;;;;;;16.10;14.90;;;25.20;69.20;;;;;;6235948;28;20257;-81
2023/08/20 07:56:43;;;;;;;16.77;15.30;;;24.90;70.10;;;;;;6239842;28;20664;-80
2023/08/20 07:59:46;;;;;;;17.47;15.93;;;24.60;70.70;;;;;;6242713;28;20249;-80
2023/08/20 08:02:50;;;;;;;17.77;16.30;;;24.50;71.30;;;;;;6259834;28;20235;-81
2023/08/20 08:05:53;;;;;;;17.83;16.17;;;24.50;71.20;;;;;;6260209;28;20235;-77
2023/08/20 08:09:15;;;;;;;18.07;16.57;;;24.60;71.10;;;;;;6255669;28;20358;-80
2023/08/20 08:12:18;;;;;;;16.47;15.17;;;24.50;70.80;;;;;;6251780;28;20431;-78
2023/08/20 08:15:21;;;;;;;16.83;15.60;;;24.60;71.20;;;;;;6252758;28;20237;-80
2023/08/20 08:18:24;;;;;;;17.60;16.13;;;24.80;70.50;;;;;;6240493;28;20241;-77
2023/08/20 08:21:27;;;;;;;15.70;14.30;;;24.90;70.10;;;;;;6250512;28;20633;-81
2023/08/20 08:24:32;;;;;;;15.77;14.67;;;25.00;69.80;;;;;;6242717;28;20321;-82
2023/08/20 08:27:35;;;;;;;14.47;13.40;;;25.20;69.80;;;;;;6237567;28;20234;-84
2023/08/20 08:30:56;;;;;;;14.20;13.20;;;25.20;69.10;;;;;;6248355;28;20250;-82
2023/08/20 08:33:59;;;;;;;14.30;13.00;;;25.20;68.30;;;;;;6247799;28;20417;-83
2023/08/20 08:37:02;;;;;;;15.80;14.57;;;25.30;68.30;;;;;;6244236;28;20245;-85
2023/08/20 08:40:09;;;;;;;14.37;13.10;;;25.30;67.70;;;;;;6236683;28;20285;-83
2023/08/20 08:43:16;;;;;;;15.23;13.57;;;25.30;68.20;;;;;;6245657;28;20238;-80
2023/08/20 08:46:20;;;;;;;13.70;12.70;;;25.40;68.10;;;;;;6245564;28;20274;-82
2023/08/20 08:49:23;;;;;;;12.97;11.93;;;25.60;67.80;;;;;;6243083;28;20405;-83
2023/08/20 08:52:27;;;;;;;11.93;10.87;;;25.90;67.70;;;;;;6231134;28;20226;-81
2023/08/20 08:55:31;;;;;;;13.03;11.93;;;26.20;65.70;;;;;;6246535;28;20316;-82
2023/08/20 08:58:35;;;;;;;11.37;10.43;;;26.00;65.90;;;;;;6243240;28;20303;-84
2023/08/20 09:01:40;;;;;;;11.80;10.80;;;25.80;67.00;;;;;;6245548;28;20238;-82
2023/08/20 09:04:43;;;;;;;10.93;10.10;;;26.20;65.90;;;;;;6243901;28;20289;-83
2023/08/20 09:07:46;;;;;;;11.43;10.40;;;26.60;64.80;;;;;;6243687;28;20246;-82
2023/08/20 09:10:53;;;;;;;11.80;10.80;;;26.70;64.80;;;;;;6242951;28;20262;-82
2023/08/20 09:13:57;;;;;;;11.33;10.67;;;26.30;64.70;;;;;;6229180;28;20242;-84
2023/08/20 09:17:01;;;;;;;10.67;9.77;;;26.10;66.00;;;;;;6211931;28;20348;-82
2023/08/20 09:20:05;;;;;;;11.37;10.63;;;26.20;64.60;;;;;;6242608;28;20234;-82
2023/08/20 09:23:12;;;;;;;11.17;10.30;;;26.40;64.20;;;;;;6239412;28;20302;-83
2023/08/20 09:26:17;;;;;;;11.07;10.27;;;26.40;64.60;;;;;;6243729;28;20273;-83
2023/08/20 09:29:20;;;;;;;9.90;9.20;;;26.40;64.70;;;;;;6226131;28;20245;-83
2023/08/20 09:32:25;;;;;;;9.77;9.07;;;26.60;64.20;;;;;;6216527;28;20235;-83
2023/08/20 09:35:28;;;;;;;10.00;9.30;;;26.60;63.60;;;;;;6213869;28;20235;-83
2023/08/20 09:38:37;;;;;;;10.00;9.20;;;26.80;63.90;;;;;;6237529;28;20890;-82
2023/08/20 09:41:41;;;;;;;10.37;8.97;;;26.80;63.70;;;;;;6238414;28;20324;-84
2023/08/20 09:44:46;;;;;;;9.57;8.73;;;26.80;63.50;;;;;;6238717;28;20363;-82
2023/08/20 09:47:57;;;;;;;9.47;8.80;;;26.70;63.50;;;;;;6238873;28;20864;-82
2023/08/20 09:51:05;;;;;;;8.37;7.87;;;26.50;64.00;;;;;;6230075;28;20234;-84
2023/08/20 09:54:14;;;;;;;9.17;8.47;;;26.60;64.20;;;;;;6241522;28;20235;-84
2023/08/20 09:57:27;;;;;;;9.13;8.53;;;26.70;63.50;;;;;;6240419;28;20693;-84
2023/08/20 10:00:31;;;;;;;7.87;7.47;;;26.80;62.80;;;;;;6221898;28;20262;-83
2023/08/20 10:03:34;;;;;;;9.50;8.67;;;26.70;62.70;;;;;;6232137;28;20235;-81
2023/08/20 10:06:38;;;;;;;7.73;7.10;;;26.70;62.40;;;;;;6239320;28;20252;-81
2023/08/20 10:09:45;;;;;;;9.13;8.27;;;26.90;62.90;;;;;;6235230;28;20378;-83
2023/08/20 10:12:51;;;;;;;7.90;7.07;;;26.90;62.30;;;;;;6235449;28;20227;-82
2023/08/20 10:15:56;;;;;;;7.23;6.83;;;27.00;62.60;;;;;;6241641;28;20254;-84
2023/08/20 10:19:04;;;;;;;6.50;6.20;;;27.10;60.70;;;;;;6227446;28;20316;-83
2023/08/20 10:22:08;;;;;;;6.67;6.20;;;27.30;59.60;;;;;;6210578;28;20238;-81
2023/08/20 10:25:12;;;;;;;6.57;6.07;;;27.40;60.00;;;;;;6236361;28;20308;-80
2023/08/20 10:28:22;;;;;;;5.60;5.30;;;27.30;59.60;;;;;;6239223;28;20964;-84
2023/08/20 10:31:27;;;;;;;5.67;5.33;;;27.60;58.70;;;;;;6238884;28;20297;-83
2023/08/20 10:34:34;;;;;;;5.50;5.20;;;27.60;57.70;;;;;;6234043;28;20608;-84
2023/08/20 10:37:40;;;;;;;5.20;5.00;;;27.70;57.70;;;;;;6239446;28;20795;-84
2023/08/20 10:40:52;;;;;;;5.00;4.80;;;27.80;57.50;;;;;;6228119;28;20743;-84
2023/08/20 10:43:59;;;;;;;5.10;4.80;;;27.60;57.70;;;;;;6236170;28;20246;-82
2023/08/20 10:47:08;;;;;;;4.67;4.47;;;27.70;57.90;;;;;;6224667;28;20591;-79
2023/08/20 10:50:13;;;;;;;6.00;5.53;;;27.80;57.30;;;;;;6230787;28;20823;-81
2023/08/20 10:53:16;;;;;;;4.33;4.23;;;27.70;57.60;;;;;;6232806;28;20920;-80
2023/08/20 10:56:19;;;;;;;4.37;4.27;;;27.50;56.20;;;;;;6232871;28;20235;-83
2023/08/20 10:59:26;;;;;;;4.07;3.97;;;27.50;57.00;;;;;;6237790;28;20354;-83
2023/08/20 11:02:30;;;;;;;4.60;4.43;;;27.50;56.60;;;;;;6237760;28;20321;-83
2023/08/20 11:05:34;;;;;;;6.53;5.00;;;27.50;56.50;;;;;;6231331;28;20255;-83
2023/08/20 11:08:37;;;;;;;4.73;4.53;;;27.40;55.70;;;;;;6236681;28;20251;-81
2023/08/20 11:11:40;;;;;;;4.80;4.50;;;27.50;56.60;;;;;;6234996;28;20372;-84
2023/08/20 11:14:45;;;;;;;4.20;4.10;;;27.50;56.60;;;;;;6228293;28;20262;-82
2023/08/20 11:17:49;;;;;;;4.27;4.07;;;27.50;56.20;;;;;;6237043;28;20729;-82
2023/08/20 11:20:55;;;;;;;5.17;4.90;;;27.50;55.60;;;;;;6237357;28;20246;-82
2023/08/20 11:24:01;;;;;;;5.00;4.67;;;27.70;55.50;;;;;;6231578;28;20255;-82
2023/08/20 11:27:05;;;;;;;4.13;3.93;;;27.80;54.60;;;;;;6236926;28;20229;-83
2023/08/20 11:30:11;;;;;;;3.70;3.60;;;28.00;55.50;;;;;;6236637;28;20234;-84
2023/08/20 11:33:15;;;;;;;3.65;3.53;;;28.30;55.30;;;;;;6232285;28;20231;-83
2023/08/20 11:36:20;;;;;;;4.10;3.90;;;28.50;55.00;;;;;;6235287;28;20835;-82
2023/08/20 11:39:24;;;;;;;3.88;3.72;;;28.70;54.90;;;;;;6226998;28;20609;-83
2023/08/20 11:42:27;;;;;;;4.00;3.85;;;28.50;54.60;;;;;;6232789;28;20413;-81
2023/08/20 11:45:32;;;;;;;5.03;4.72;;;28.50;54.30;;;;;;6236087;28;20347;-82
2023/08/20 11:48:36;;;;;;;4.00;3.90;;;28.50;54.00;;;;;;6214330;28;20244;-82
2023/08/20 11:51:41;;;;;;;3.88;3.65;;;28.60;53.90;;;;;;6229621;28;20239;-84
2023/08/20 11:54:44;;;;;;;3.33;3.13;;;28.60;54.20;;;;;;6234561;28;20329;-83
2023/08/20 11:57:51;;;;;;;3.53;3.33;;;28.70;53.40;;;;;;6235994;28;20286;-83
2023/08/20 12:00:57;;;;;;;3.28;3.13;;;28.70;52.90;;;;;;6232129;28;20384;-84
2023/08/20 12:04:05;;;;;;;4.25;3.35;;;28.90;52.80;;;;;;6228377;28;20246;-83
2023/08/20 12:07:10;;;;;;;3.42;3.22;;;28.90;52.50;;;;;;6232270;28;20297;-84
2023/08/20 12:10:23;;;;;;;3.55;3.40;;;28.90;52.90;;;;;;6231886;28;20230;-80
2023/08/20 12:13:27;;;;;;;3.38;3.08;;;28.90;52.90;;;;;;6235494;28;20339;-83
2023/08/20 12:16:31;;;;;;;3.08;2.88;;;28.90;53.90;;;;;;6234911;28;20269;-84
2023/08/20 12:19:34;;;;;;;2.95;2.85;;;29.00;52.70;;;;;;6225555;28;20330;-82
2023/08/20 12:22:37;;;;;;;3.00;2.90;;;29.10;52.80;;;;;;6209631;28;20240;-83
2023/08/20 12:25:40;;;;;;;3.63;3.40;;;29.10;52.70;;;;;;6203519;28;20373;-82
2023/08/20 12:28:43;;;;;;;3.35;3.15;;;29.20;52.90;;;;;;6215474;28;20267;-81
2023/08/20 12:31:48;;;;;;;3.85;3.15;;;28.90;53.20;;;;;;6209767;28;20242;-83
2023/08/20 12:34:51;;;;;;;3.45;3.22;;;28.90;53.10;;;;;;6178304;28;20236;-84
2023/08/20 12:37:54;;;;;;;3.10;2.90;;;28.90;52.30;;;;;;6205100;28;20864;-81
2023/08/20 12:40:57;;;;;;;3.20;2.92;;;28.90;51.60;;;;;;6213483;28;20748;-82
2023/08/20 12:44:00;;;;;;;3.28;3.17;;;28.90;51.70;;;;;;6206812;28;20763;-85
2023/08/20 12:47:05;;;;;;;3.10;2.90;;;29.10;50.90;;;;;;6214352;28;20372;-78
2023/08/20 12:50:08;;;;;;;2.72;2.65;;;29.00;51.60;;;;;;6202391;28;21106;-76
2023/08/20 12:53:12;;;;;;;2.70;2.60;;;29.10;51.20;;;;;;6203198;28;20243;-76
2023/08/20 12:56:16;;;;;;;3.28;3.15;;;29.10;50.60;;;;;;6203745;28;20314;-76
2023/08/20 12:59:19;;;;;;;3.05;2.90;;;29.20;51.10;;;;;;6218008;28;20250;-79
2023/08/20 13:02:24;;;;;;;4.00;3.00;;;29.20;51.20;;;;;;6203447;28;20282;-78
2023/08/20 13:05:28;;;;;;;2.83;2.72;;;29.40;50.50;;;;;;6222712;28;20239;-77
2023/08/20 13:08:32;;;;;;;3.22;3.03;;;29.40;49.80;;;;;;6203999;28;20239;-78
2023/08/20 13:11:38;;;;;;;2.95;2.85;;;29.50;49.90;;;;;;6217986;28;20329;-78
2023/08/20 13:14:42;;;;;;;2.63;2.58;;;29.70;50.50;;;;;;6205716;28;20317;-77
2023/08/20 13:17:48;;;;;;;3.28;2.13;;;29.80;49.70;;;;;;6215868;28;20745;-77
2023/08/20 13:20:53;;;;;;;2.63;2.42;;;29.50;49.80;;;;;;6238894;28;20235;-76
2023/08/20 13:23:59;;;;;;;2.83;2.72;;;29.30;49.90;;;;;;6238373;28;20238;-78
2023/08/20 13:27:02;;;;;;;2.72;2.53;;;29.50;50.80;;;;;;6239967;28;20227;-79
2023/08/20 13:30:08;;;;;;;2.40;2.40;;;29.70;49.50;;;;;;6235129;28;20247;-77
2023/08/20 13:33:13;;;;;;;2.28;2.00;;;29.70;48.80;;;;;;6235043;28;20856;-79
2023/08/20 13:36:16;;;;;;;2.20;2.15;;;29.80;48.00;;;;;;6234851;28;20227;-76
2023/08/20 13:39:20;;;;;;;2.28;2.20;;;29.80;47.10;;;;;;6237889;28;20350;-78
2023/08/20 13:42:23;;;;;;;1.80;1.80;;;29.80;48.40;;;;;;6236649;28;20234;-76
2023/08/20 13:45:26;;;;;;;3.05;2.25;;;29.90;47.20;;;;;;6234610;28;20312;-77
2023/08/20 13:48:30;;;;;;;2.05;1.95;;;30.00;47.80;;;;;;6235082;28;20246;-77
2023/08/20 13:51:33;;;;;;;2.15;2.10;;;30.00;47.60;;;;;;6239822;28;20314;-77
2023/08/20 13:54:37;;;;;;;2.38;2.28;;;30.00;46.60;;;;;;6233850;28;20235;-78
2023/08/20 13:57:40;;;;;;;2.67;2.15;;;29.70;47.10;;;;;;6236290;28;20377;-77
2023/08/20 14:00:43;;;;;;;2.45;2.28;;;29.60;47.50;;;;;;6252870;28;20243;-78
2023/08/20 14:03:48;;;;;;;2.13;2.00;;;29.60;47.10;;;;;;6244457;28;20332;-76
2023/08/20 14:06:51;;;;;;;2.30;2.20;;;29.40;47.50;;;;;;6231257;28;20430;-79
2023/08/20 14:09:54;;;;;;;1.95;1.90;;;29.30;47.90;;;;;;6247377;28;20258;-77
2023/08/20 14:12:57;;;;;;;2.38;2.28;;;28.90;48.30;;;;;;6250248;28;20843;-81
2023/08/20 14:16:01;;;;;;;2.53;2.33;;;29.00;48.50;;;;;;6237974;28;20257;-80
2023/08/20 14:19:06;;;;;;;2.38;2.20;;;29.10;47.70;;;;;;6237540;28;20234;-78
2023/08/20 14:22:09;;;;;;;2.22;2.13;;;29.20;49.20;;;;;;6229636;28;20267;-78
2023/08/20 14:25:12;;;;;;;1.90;1.90;;;29.40;47.80;;;;;;6221247;28;20321;-79
2023/08/20 14:28:15;;;;;;;2.45;1.90;;;29.30;47.60;;;;;;6226163;28;20250;-79
2023/08/20 14:31:19;;;;;;;2.03;2.03;;;29.20;46.20;;;;;;6214651;28;20235;-80
2023/08/20 14:34:23;;;;;;;1.98;1.98;;;29.10;45.60;;;;;;6246600;28;20242;-78
2023/08/20 14:37:27;;;;;;;1.60;1.60;;;28.90;45.60;;;;;;6245489;28;20232;-78
2023/08/20 14:40:31;;;;;;;1.90;1.80;;;28.90;45.30;;;;;;6251122;28;20227;-79
2023/08/20 14:43:35;;;;;;;2.15;2.05;;;28.90;44.40;;;;;;6251664;28;20427;-78
2023/08/20 14:46:40;;;;;;;1.80;1.80;;;29.00;44.40;;;;;;6226395;28;20386;-79
2023/08/20 14:49:44;;;;;;;2.15;2.08;;;29.00;44.10;;;;;;6218357;28;20241;-77
2023/08/20 14:52:51;;;;;;;2.25;2.15;;;28.90;44.10;;;;;;6212692;28;20250;-76
2023/08/20 14:55:54;;;;;;;2.30;2.20;;;28.80;44.70;;;;;;6215802;28;20239;-78
2023/08/20 14:58:57;;;;;;;2.28;2.22;;;28.80;44.80;;;;;;6202286;28;20350;-79
2023/08/20 15:02:01;;;;;;;1.90;1.90;;;28.80;45.40;;;;;;6209799;28;20352;-79
2023/08/20 15:05:06;;;;;;;2.85;1.90;;;28.80;46.00;;;;;;6218661;28;20239;-79
2023/08/20 15:08:09;;;;;;;2.08;1.88;;;28.90;45.50;;;;;;6234763;28;20230;-78
2023/08/20 15:11:13;;;;;;;2.13;1.92;;;28.80;46.10;;;;;;6243799;28;20258;-79
2023/08/20 15:14:16;;;;;;;1.60;1.60;;;28.80;46.80;;;;;;6242623;28;20343;-79
2023/08/20 15:17:19;;;;;;;2.08;1.83;;;28.90;46.70;;;;;;6223782;28;20223;-81
2023/08/20 15:20:23;;;;;;;2.05;1.85;;;28.90;47.40;;;;;;6235211;28;20220;-78
2023/08/20 15:23:27;;;;;;;2.28;2.13;;;28.90;47.80;;;;;;6228863;28;20809;-81
2023/08/20 15:26:30;;;;;;;2.55;2.35;;;28.80;47.90;;;;;;6187615;28;20238;-79
2023/08/20 15:29:37;;;;;;;3.72;2.42;;;28.90;48.60;;;;;;6221652;28;20235;-80
2023/08/20 15:32:40;;;;;;;2.58;2.38;;;29.10;48.00;;;;;;6213427;28;20255;-80
2023/08/20 15:35:44;;;;;;;2.13;2.03;;;29.30;47.60;;;;;;6214917;28;20257;-78
2023/08/20 15:38:48;;;;;;;4.97;2.28;;;29.40;47.90;;;;;;6214782;28;20392;-78
2023/08/20 15:41:51;;;;;;;2.17;2.08;;;29.50;45.90;;;;;;6203651;28;20779;-79
2023/08/20 15:44:55;;;;;;;1.60;1.50;;;29.50;45.80;;;;;;6214266;28;20781;-81